createdAt,value
2018-12-10T00:02:20.279Z,16.93
2018-12-10T00:04:48.756Z,16.47
2018-12-10T00:07:17.308Z,23.20
2018-12-10T00:09:46.044Z,16.50
2018-12-10T00:12:14.540Z,27.50
2018-12-10T00:14:42.919Z,23.03
2018-12-10T00:17:11.912Z,23.27
2018-12-10T00:19:40.525Z,18.07
2018-12-10T00:22:08.959Z,21.40
2018-12-10T00:24:37.894Z,23.50
2018-12-10T00:27:06.301Z,19.70
2018-12-10T00:29:34.971Z,26.77
2018-12-10T00:32:03.334Z,19.70
2018-12-10T00:34:31.920Z,28.03
2018-12-10T00:37:00.399Z,18.63
2018-12-10T00:39:29.004Z,25.27
2018-12-10T00:41:57.973Z,25.27
2018-12-10T00:44:26.438Z,19.27
2018-12-10T00:46:54.489Z,20.27
2018-12-10T00:49:22.972Z,24.17
2018-12-10T00:51:51.493Z,20.13
2018-12-10T00:54:20.065Z,16.83
2018-12-10T00:56:49.148Z,20.30
2018-12-10T00:59:17.651Z,18.03
2018-12-10T01:01:46.255Z,18.37
2018-12-10T01:04:14.719Z,19.77
2018-12-10T01:06:43.892Z,18.00
2018-12-10T01:09:12.382Z,16.97
2018-12-10T01:11:40.722Z,21.97
2018-12-10T01:14:09.152Z,22.77
2018-12-10T01:16:38.028Z,20.73
2018-12-10T01:19:06.557Z,19.43
2018-12-10T01:21:35.097Z,19.07
2018-12-10T01:24:03.985Z,18.77
2018-12-10T01:26:32.479Z,24.47
2018-12-10T01:29:00.805Z,23.93
2018-12-10T01:31:29.350Z,14.33
2018-12-10T01:33:58.311Z,16.43
2018-12-10T01:36:26.975Z,20.50
2018-12-10T01:38:55.015Z,17.07
2018-12-10T01:41:23.109Z,20.40
2018-12-10T01:43:52.106Z,18.60
2018-12-10T01:46:20.607Z,18.73
2018-12-10T01:48:49.111Z,15.70
2018-12-10T01:51:17.571Z,19.77
2018-12-10T01:53:45.672Z,23.70
2018-12-10T01:56:14.185Z,20.97
2018-12-10T01:58:42.799Z,23.37
2018-12-10T02:01:11.603Z,18.33
2018-12-10T02:03:40.148Z,18.37
2018-12-10T02:06:09.224Z,21.07
2018-12-10T02:08:37.308Z,13.27
2018-12-10T02:11:05.775Z,17.20
2018-12-10T02:13:34.298Z,15.10
2018-12-10T02:16:02.855Z,16.87
2018-12-10T02:18:31.339Z,11.87
2018-12-10T02:21:00.427Z,17.27
2018-12-10T02:23:29.128Z,15.10
2018-12-10T02:25:57.591Z,16.53
2018-12-10T02:28:31.949Z,14.63
2018-12-10T02:31:00.386Z,21.70
2018-12-10T02:33:28.924Z,23.27
2018-12-10T02:35:57.055Z,19.03
2018-12-10T02:38:25.672Z,13.30
2018-12-10T02:40:54.110Z,17.73
2018-12-10T02:43:22.608Z,13.67
2018-12-10T02:45:51.107Z,18.37
2018-12-10T02:48:20.025Z,17.23
2018-12-10T02:50:48.528Z,19.87
2018-12-10T02:53:17.310Z,17.10
2018-12-10T02:55:45.912Z,16.80
2018-12-10T02:58:14.388Z,15.33
2018-12-10T03:00:42.845Z,15.07
2018-12-10T03:03:11.388Z,15.10
2018-12-10T03:05:39.553Z,14.00
2018-12-10T03:08:08.576Z,13.03
2018-12-10T03:10:37.046Z,10.47
2018-12-10T03:13:05.126Z,9.17
2018-12-10T03:15:34.033Z,11.23
2018-12-10T03:18:02.600Z,12.93
2018-12-10T03:20:31.155Z,12.70
2018-12-10T03:22:59.698Z,17.27
2018-12-10T03:25:28.236Z,14.13
2018-12-10T03:27:56.901Z,11.10
2018-12-10T03:30:25.793Z,16.93
2018-12-10T03:32:54.322Z,11.37
2018-12-10T03:35:23.765Z,14.97
2018-12-10T03:37:52.176Z,15.03
2018-12-10T03:40:20.564Z,13.90
2018-12-10T03:42:49.101Z,20.03
2018-12-10T03:45:18.335Z,12.03
2018-12-10T03:47:46.868Z,17.77
2018-12-10T03:50:15.560Z,14.67
2018-12-10T03:52:44.205Z,19.23
2018-12-10T03:55:12.739Z,14.17
2018-12-10T03:57:41.240Z,15.53
2018-12-10T04:00:10.734Z,12.83
2018-12-10T04:02:39.586Z,12.93
2018-12-10T04:05:08.282Z,9.53
2018-12-10T04:07:36.914Z,15.87
2018-12-10T04:10:06.258Z,13.27
2018-12-10T04:12:35.034Z,17.87
2018-12-10T04:15:03.847Z,17.53
2018-12-10T04:17:32.627Z,18.83
2018-12-10T04:20:01.309Z,18.13
2018-12-10T04:22:30.190Z,20.47
2018-12-10T04:25:00.749Z,26.17
2018-12-10T04:27:29.962Z,22.17
2018-12-10T04:29:58.848Z,25.80
2018-12-10T04:32:27.696Z,25.00
2018-12-10T04:34:56.206Z,24.57
2018-12-10T04:37:24.968Z,27.20
2018-12-10T04:39:53.927Z,20.77
2018-12-10T04:42:23.115Z,28.60
2018-12-10T04:44:52.274Z,22.77
2018-12-10T04:47:21.955Z,23.50
2018-12-10T04:49:51.295Z,22.33
2018-12-10T04:52:19.815Z,18.97
2018-12-10T04:54:48.736Z,26.60
2018-12-10T04:57:18.479Z,19.97
2018-12-10T04:59:52.767Z,17.50
2018-12-10T05:02:19.057Z,22.53
2018-12-10T05:04:48.101Z,19.30
2018-12-10T05:07:17.427Z,18.43
2018-12-10T05:10:12.630Z,21.83
2018-12-10T05:12:42.617Z,22.53
2018-12-10T05:15:15.035Z,19.73
2018-12-10T05:17:44.229Z,17.97
2018-12-10T05:20:12.901Z,21.43
2018-12-10T05:22:41.405Z,20.33
2018-12-10T05:25:10.044Z,18.27
2018-12-10T05:27:39.512Z,21.37
2018-12-10T05:30:09.091Z,25.33
2018-12-10T05:32:38.251Z,27.30
2018-12-10T05:35:07.469Z,23.70
2018-12-10T05:37:35.997Z,21.17
2018-12-10T05:40:05.550Z,22.53
2018-12-10T05:42:35.585Z,25.27
2018-12-10T05:45:10.774Z,20.23
2018-12-10T05:47:42.983Z,19.30
2018-12-10T05:50:14.559Z,21.00
2018-12-10T05:52:44.021Z,34.70
2018-12-10T05:55:13.705Z,21.70
2018-12-10T05:57:43.142Z,17.40
2018-12-10T06:00:13.050Z,21.53
2018-12-10T06:02:42.830Z,15.70
2018-12-10T06:05:15.263Z,19.83
2018-12-10T06:07:45.159Z,17.77
2018-12-10T06:10:15.689Z,12.77
2018-12-10T06:12:45.118Z,16.73
2018-12-10T06:15:15.307Z,19.40
2018-12-10T06:17:44.716Z,15.53
2018-12-10T06:20:13.634Z,21.20
2018-12-10T06:22:45.017Z,13.33
2018-12-10T06:25:14.892Z,9.70
2018-12-10T06:27:45.669Z,17.10
2018-12-10T06:30:14.656Z,10.70
2018-12-10T06:32:44.380Z,17.90
2018-12-10T06:35:13.256Z,19.47
2018-12-10T06:37:42.494Z,13.33
2018-12-10T06:40:11.729Z,14.60
2018-12-10T06:42:42.839Z,19.90
2018-12-10T06:45:12.225Z,20.83
2018-12-10T06:47:41.460Z,18.50
2018-12-10T06:50:10.909Z,13.63
2018-12-10T06:52:41.601Z,22.30
2018-12-10T06:55:12.483Z,20.40
2018-12-10T06:57:41.797Z,18.20
2018-12-10T07:00:11.532Z,14.03
2018-12-10T07:02:40.927Z,19.63
2018-12-10T07:05:09.896Z,17.10
2018-12-10T07:07:39.773Z,27.27
2018-12-10T07:10:11.917Z,25.60
2018-12-10T07:12:41.564Z,20.50
2018-12-10T07:15:10.402Z,24.07
2018-12-10T07:17:39.729Z,22.37
2018-12-10T07:20:10.523Z,24.03
2018-12-10T07:22:39.557Z,23.57
2018-12-10T07:25:08.860Z,23.53
2018-12-10T07:27:38.442Z,28.03
2018-12-10T07:30:09.219Z,16.53
2018-12-10T07:32:38.209Z,21.17
2018-12-10T07:35:09.855Z,19.27
2018-12-10T07:37:39.170Z,18.57
2018-12-10T07:40:08.306Z,21.63
2018-12-10T07:42:37.003Z,22.37
2018-12-10T07:45:06.352Z,18.63
2018-12-10T07:47:34.773Z,20.67
2018-12-10T07:50:05.268Z,21.03
2018-12-10T07:52:33.989Z,21.53
2018-12-10T07:55:02.683Z,20.33
2018-12-10T07:57:33.116Z,19.23
2018-12-10T08:00:01.560Z,17.20
2018-12-10T08:02:30.943Z,25.30
2018-12-10T08:05:00.284Z,16.20
2018-12-10T08:07:29.572Z,17.50
2018-12-10T08:09:58.372Z,20.03
2018-12-10T08:12:27.474Z,27.00
2018-12-10T08:14:56.574Z,23.17
2018-12-10T08:17:25.405Z,22.87
2018-12-10T08:19:56.639Z,22.60
2018-12-10T08:22:25.018Z,23.67
2018-12-10T08:24:54.246Z,30.13
2018-12-10T08:27:23.417Z,25.60
2018-12-10T08:29:52.741Z,15.00
2018-12-10T08:32:22.329Z,21.63
2018-12-10T08:34:51.033Z,25.40
2018-12-10T08:37:19.876Z,18.47
2018-12-10T08:39:48.274Z,25.17
2018-12-10T08:42:20.058Z,26.23
2018-12-10T08:48:29.404Z,15.47
2018-12-10T08:50:58.332Z,13.87
2018-12-10T08:53:28.756Z,14.73
2018-12-10T08:55:58.648Z,16.37
2018-12-10T08:58:29.430Z,13.93
2018-12-10T09:01:00.063Z,14.60
2018-12-10T09:03:30.302Z,13.00
2018-12-10T09:05:59.334Z,11.33
2018-12-10T09:08:28.655Z,13.83
2018-12-10T09:10:57.691Z,12.63
2018-12-10T09:13:27.215Z,14.30
2018-12-10T09:15:57.374Z,17.53
2018-12-10T09:18:26.557Z,15.43
2018-12-10T09:20:55.227Z,17.37
2018-12-10T09:23:24.412Z,15.97
2018-12-10T09:25:53.960Z,16.57
2018-12-10T09:28:23.610Z,19.33
2018-12-10T09:30:53.567Z,13.50
2018-12-10T09:33:25.075Z,17.30
2018-12-10T09:35:56.425Z,15.90
2018-12-10T09:38:26.685Z,17.80
2018-12-10T09:40:56.171Z,14.23
2018-12-10T09:43:25.284Z,15.30
2018-12-10T09:45:54.184Z,14.87
2018-12-10T09:48:22.587Z,17.40
2018-12-10T09:50:52.042Z,11.80
2018-12-10T09:53:21.255Z,19.83
2018-12-10T09:55:50.399Z,17.60
2018-12-10T09:58:19.751Z,12.73
2018-12-10T10:00:48.516Z,14.27
2018-12-10T10:03:18.043Z,15.87
2018-12-10T10:05:47.047Z,12.97
2018-12-10T10:08:16.340Z,20.33
2018-12-10T10:10:45.082Z,15.03
2018-12-10T10:13:13.837Z,11.67
2018-12-10T10:15:43.241Z,17.83
2018-12-10T10:18:12.186Z,19.40
2018-12-10T10:20:41.246Z,16.60
2018-12-10T10:23:10.362Z,18.07
2018-12-10T10:25:39.036Z,19.67
2018-12-10T10:28:08.592Z,26.47
2018-12-10T10:30:37.315Z,20.27
2018-12-10T10:33:08.957Z,17.50
2018-12-10T10:35:37.309Z,10.07
2018-12-10T10:38:06.091Z,18.77
2018-12-10T10:40:34.831Z,12.50
2018-12-10T10:43:03.415Z,17.73
2018-12-10T10:45:34.844Z,11.77
2018-12-10T10:48:03.505Z,9.40
2018-12-10T10:50:32.055Z,11.10
2018-12-10T10:53:00.719Z,11.83
2018-12-10T10:55:29.921Z,13.83
2018-12-10T10:58:01.158Z,14.93
2018-12-10T11:03:37.604Z,17.03
2018-12-10T11:06:07.362Z,12.17
2018-12-10T11:08:35.460Z,18.93
2018-12-10T11:11:04.018Z,11.60
2018-12-10T11:13:32.112Z,13.47
2018-12-10T11:16:01.309Z,13.30
2018-12-10T11:18:31.815Z,18.03
2018-12-10T11:21:04.881Z,14.13
2018-12-10T11:23:37.292Z,16.50
2018-12-10T11:26:07.512Z,18.33
2018-12-10T11:28:39.795Z,16.77
2018-12-10T11:31:11.254Z,21.17
2018-12-10T11:33:42.005Z,12.33
2018-12-10T11:36:13.305Z,8.27
2018-12-10T11:38:45.507Z,11.57
2018-12-10T11:41:17.613Z,8.57
2018-12-10T11:43:47.682Z,7.53
2018-12-10T11:46:22.071Z,5.90
2018-12-10T11:48:52.645Z,7.83
2018-12-10T11:51:22.268Z,6.13
2018-12-10T11:53:52.504Z,12.93
2018-12-10T11:56:23.399Z,16.43
2018-12-10T11:58:56.536Z,9.47
2018-12-10T12:01:28.872Z,10.97
2018-12-10T12:03:57.184Z,14.57
2018-12-10T12:06:28.059Z,12.10
2018-12-10T12:09:00.088Z,16.80
2018-12-10T12:11:31.553Z,10.03
2018-12-10T12:14:06.417Z,12.93
2018-12-10T12:16:39.383Z,8.07
2018-12-10T12:19:11.747Z,13.90
2018-12-10T12:21:44.091Z,10.17
2018-12-10T12:24:14.187Z,7.33
2018-12-10T12:26:47.422Z,9.03
2018-12-10T12:29:24.165Z,6.10
2018-12-10T12:31:58.699Z,9.30
2018-12-10T12:34:30.320Z,10.20
2018-12-10T12:37:00.010Z,7.93
2018-12-10T12:39:30.875Z,8.70
2018-12-10T12:42:05.240Z,7.80
2018-12-10T12:44:40.719Z,7.20
2018-12-10T12:47:10.765Z,9.43
2018-12-10T12:49:41.085Z,6.87
2018-12-10T12:52:10.441Z,10.63
2018-12-10T12:54:39.499Z,11.67
2018-12-10T12:57:09.044Z,10.20
2018-12-10T12:59:38.048Z,11.17
2018-12-10T13:02:06.674Z,7.43
2018-12-10T13:04:35.100Z,8.80
2018-12-10T13:07:05.089Z,9.83
2018-12-10T13:09:33.627Z,11.97
2018-12-10T13:12:02.800Z,9.53
2018-12-10T13:14:31.351Z,11.17
2018-12-10T13:17:00.583Z,8.23
2018-12-10T13:19:29.765Z,8.47
2018-12-10T13:21:59.151Z,12.00
2018-12-10T13:24:27.550Z,10.60
2018-12-10T13:26:57.340Z,14.33
2018-12-10T13:29:31.259Z,11.57
2018-12-10T13:31:59.436Z,8.80
2018-12-10T13:34:29.224Z,10.57
2018-12-10T13:36:59.950Z,11.83
2018-12-10T13:39:29.242Z,8.80
2018-12-10T13:41:58.147Z,11.80
2018-12-10T13:44:27.558Z,14.97
2018-12-10T13:46:55.871Z,10.10
2018-12-10T13:49:24.914Z,6.90
2018-12-10T13:51:53.651Z,12.37
2018-12-10T13:54:22.315Z,11.07
2018-12-10T13:56:50.765Z,13.97
2018-12-10T13:59:19.500Z,13.40
2018-12-10T14:01:48.036Z,10.40
2018-12-10T14:04:18.428Z,7.97
2018-12-10T14:06:47.220Z,11.33
2018-12-10T14:09:16.341Z,9.70
2018-12-10T14:11:45.230Z,14.97
2018-12-10T14:14:14.109Z,6.23
2018-12-10T14:16:50.586Z,9.60
2018-12-10T14:19:19.448Z,11.37
2018-12-10T14:21:48.209Z,13.83
2018-12-10T14:24:16.931Z,11.77
2018-12-10T14:26:45.518Z,8.90
2018-12-10T14:29:15.148Z,10.67
2018-12-10T14:31:45.203Z,10.37
2018-12-10T14:34:20.068Z,8.77
2018-12-10T14:36:48.936Z,8.97
2018-12-10T14:39:20.024Z,8.97
2018-12-10T14:41:48.705Z,8.23
2018-12-10T14:44:18.677Z,6.33
2018-12-10T14:46:48.249Z,10.23
2018-12-10T14:49:19.366Z,10.30
2018-12-10T14:51:49.922Z,10.57
2018-12-10T14:54:18.857Z,5.97
2018-12-10T14:56:52.239Z,6.27
2018-12-10T14:59:24.994Z,7.60
2018-12-10T15:01:57.507Z,9.90
2018-12-10T15:04:33.645Z,6.57
2018-12-10T15:07:03.442Z,6.73
2018-12-10T15:09:34.286Z,8.07
2018-12-10T15:12:04.937Z,4.17
2018-12-10T15:14:36.049Z,4.60
2018-12-10T15:17:07.217Z,6.17
2018-12-10T15:19:40.435Z,9.70
2018-12-10T15:22:10.995Z,7.87
2018-12-10T15:24:47.286Z,4.60
2018-12-10T15:27:19.598Z,5.20
2018-12-10T15:29:55.337Z,9.63
2018-12-10T15:32:28.806Z,11.70
2018-12-10T15:34:58.912Z,6.90
2018-12-10T15:37:28.416Z,12.10
2018-12-10T15:40:00.808Z,17.93
2018-12-10T15:42:31.973Z,21.07
2018-12-10T15:45:02.547Z,22.10
2018-12-10T15:47:32.046Z,19.03
2018-12-10T15:50:03.427Z,21.47
2018-12-10T15:52:32.087Z,24.53
2018-12-10T15:55:01.013Z,25.33
2018-12-10T15:57:30.482Z,22.23
2018-12-10T16:00:00.944Z,17.87
2018-12-10T16:02:33.618Z,23.57
2018-12-10T16:05:04.301Z,24.30
2018-12-10T16:07:34.028Z,19.30
2018-12-10T16:10:08.712Z,21.00
2018-12-10T16:12:38.017Z,15.70
2018-12-10T16:15:07.509Z,15.10
2018-12-10T16:17:39.037Z,16.03
2018-12-10T16:20:09.523Z,14.40
2018-12-10T16:22:40.410Z,16.43
2018-12-10T16:25:14.422Z,18.33
2018-12-10T16:27:44.086Z,20.53
2018-12-10T16:30:13.703Z,17.50
2018-12-10T16:32:42.676Z,16.33
2018-12-10T16:35:12.461Z,21.53
2018-12-10T16:37:42.964Z,12.90
2018-12-10T16:40:12.486Z,16.77
2018-12-10T16:42:41.521Z,22.23
2018-12-10T16:45:10.228Z,23.07
2018-12-10T16:47:38.798Z,18.43
2018-12-10T16:50:09.915Z,17.93
2018-12-10T16:52:39.518Z,19.73
2018-12-10T16:55:08.432Z,17.73
2018-12-10T16:57:37.263Z,13.97
2018-12-10T17:00:09.733Z,18.70
2018-12-10T17:02:39.191Z,20.23
2018-12-10T17:05:07.511Z,15.67
2018-12-10T17:07:35.550Z,17.47
2018-12-10T17:10:04.552Z,18.70
2018-12-10T17:12:32.817Z,18.33
2018-12-10T17:15:00.877Z,15.53
2018-12-10T17:17:28.850Z,19.17
2018-12-10T17:19:56.932Z,16.27
2018-12-10T17:22:25.402Z,15.50
2018-12-10T17:24:53.445Z,14.37
2018-12-10T17:27:21.525Z,15.63
2018-12-10T17:29:49.588Z,13.97
2018-12-10T17:32:17.644Z,14.87
2018-12-10T17:34:46.677Z,9.37
2018-12-10T17:37:14.719Z,22.33
2018-12-10T17:39:43.092Z,27.27
2018-12-10T17:42:11.476Z,19.80
2018-12-10T17:44:39.568Z,17.97
2018-12-10T17:47:08.833Z,19.47
2018-12-10T17:49:37.927Z,29.67
2018-12-10T17:52:06.415Z,27.80
2018-12-10T17:54:34.493Z,23.77
2018-12-10T17:57:02.569Z,25.30
2018-12-10T17:59:31.382Z,29.33
2018-12-10T18:01:59.464Z,23.07
2018-12-10T18:04:28.005Z,27.27
2018-12-10T18:06:56.080Z,26.13
2018-12-10T18:09:24.132Z,26.97
2018-12-10T18:11:52.255Z,25.83
2018-12-10T18:14:20.329Z,23.63
2018-12-10T18:16:48.392Z,27.53
2018-12-10T18:19:16.456Z,29.47
2018-12-10T18:21:44.509Z,32.90
2018-12-10T18:24:12.972Z,29.43
2018-12-10T18:26:41.043Z,31.83
2018-12-10T18:29:09.107Z,35.30
2018-12-10T18:31:37.144Z,30.10
2018-12-10T18:34:05.233Z,23.93
2018-12-10T18:36:33.616Z,22.03
2018-12-10T18:39:01.706Z,17.33
2018-12-10T18:41:29.768Z,18.43
2018-12-10T18:43:57.848Z,15.63
2018-12-10T18:46:25.924Z,12.97
2018-12-10T18:48:53.972Z,18.87
2018-12-10T18:51:22.008Z,15.53
2018-12-10T18:53:50.079Z,24.13
2018-12-10T18:56:18.179Z,24.77
2018-12-10T18:58:46.247Z,20.77
2018-12-10T19:01:14.300Z,22.20
2018-12-10T19:03:43.220Z,20.67
2018-12-10T19:06:11.707Z,24.23
2018-12-10T19:08:39.819Z,25.00
2018-12-10T19:11:09.168Z,30.53
2018-12-10T19:13:37.237Z,20.00
2018-12-10T19:16:05.580Z,25.93
2018-12-10T19:18:34.110Z,28.20
2018-12-10T19:21:02.184Z,20.23
2018-12-10T19:23:30.244Z,30.33
2018-12-10T19:25:58.327Z,25.90
2018-12-10T19:28:26.372Z,35.57
2018-12-10T19:30:54.728Z,25.17
2018-12-10T19:33:23.045Z,25.20
2018-12-10T19:35:51.128Z,23.13
2018-12-10T19:38:19.441Z,29.23
2018-12-10T19:40:47.503Z,25.27
2018-12-10T19:43:15.581Z,23.23
2018-12-10T19:45:43.635Z,25.70
2018-12-10T19:48:11.711Z,19.40
2018-12-10T19:50:40.027Z,26.33
2018-12-10T19:53:08.067Z,20.17
2018-12-10T19:55:36.147Z,23.97
2018-12-10T19:58:04.267Z,26.80
2018-12-10T20:00:32.347Z,33.00
2018-12-10T20:03:05.028Z,27.07
2018-12-10T20:05:36.898Z,23.30
2018-12-10T20:08:05.003Z,29.77
2018-12-10T20:10:33.345Z,24.43
2018-12-10T20:13:01.491Z,30.03
2018-12-10T20:15:29.690Z,20.03
2018-12-10T20:17:57.780Z,20.27
2018-12-10T20:20:25.854Z,19.20
2018-12-10T20:22:54.159Z,18.80
2018-12-10T20:27:45.667Z,17.67
2018-12-10T20:30:14.266Z,18.90
2018-12-10T20:32:42.373Z,32.53
2018-12-10T20:35:10.440Z,23.97
2018-12-10T20:37:38.540Z,20.33
2018-12-10T20:40:07.128Z,20.33
2018-12-10T20:42:35.443Z,26.40
2018-12-10T20:45:04.292Z,24.97
2018-12-10T20:47:32.351Z,25.33
2018-12-10T20:50:00.963Z,31.30
2018-12-10T20:52:29.517Z,29.37
2018-12-10T20:55:02.701Z,31.13
2018-12-10T20:57:32.844Z,34.13
2018-12-10T21:00:01.525Z,27.80
2018-12-10T21:02:29.601Z,26.77
2018-12-10T21:04:57.745Z,28.50
2018-12-10T21:07:25.943Z,32.30
2018-12-10T21:09:54.085Z,33.70
2018-12-10T21:12:22.163Z,26.33
2018-12-10T21:14:51.657Z,29.83
2018-12-10T21:17:21.072Z,29.03
2018-12-10T21:19:49.806Z,27.50
2018-12-10T21:22:18.308Z,28.90
2018-12-10T21:24:47.079Z,28.67
2018-12-10T21:27:15.619Z,34.23
2018-12-10T21:29:44.195Z,24.77
2018-12-10T21:32:12.288Z,31.87
2018-12-10T21:34:40.629Z,25.77
2018-12-10T21:37:08.984Z,27.87
2018-12-10T21:39:37.062Z,33.10
2018-12-10T21:42:05.455Z,31.83
2018-12-10T21:44:33.744Z,31.30
2018-12-10T21:47:02.203Z,29.90
2018-12-10T21:49:30.446Z,39.60
2018-12-10T21:51:58.769Z,32.07
2018-12-10T21:54:26.829Z,33.80
2018-12-10T21:56:56.053Z,27.37
2018-12-10T21:59:24.670Z,24.23
2018-12-10T22:01:52.717Z,29.70
2018-12-10T22:04:21.216Z,27.93
2018-12-10T22:06:49.331Z,27.47
2018-12-10T22:09:17.467Z,25.50
2018-12-10T22:11:45.796Z,30.37
2018-12-10T22:14:13.934Z,29.90
2018-12-10T22:16:41.975Z,26.67
2018-12-10T22:19:10.844Z,28.73
2018-12-10T22:21:39.156Z,25.70
2018-12-10T22:24:07.625Z,28.43
2018-12-10T22:26:35.666Z,22.57
2018-12-10T22:29:04.367Z,26.03
2018-12-10T22:31:32.761Z,39.73
2018-12-10T22:34:00.839Z,33.73
2018-12-10T22:36:28.931Z,32.27
2018-12-10T22:38:57.760Z,27.63
2018-12-10T22:41:26.299Z,28.13
2018-12-10T22:43:54.788Z,25.70
2018-12-10T22:46:23.516Z,26.17
2018-12-10T22:48:51.613Z,30.40
2018-12-10T22:51:20.150Z,26.97
2018-12-10T22:53:48.696Z,31.27
2018-12-10T22:56:17.194Z,28.30
2018-12-10T22:58:45.240Z,28.97
2018-12-10T23:01:13.346Z,32.70
2018-12-10T23:03:41.646Z,31.77
2018-12-10T23:06:11.581Z,34.83
2018-12-10T23:08:40.224Z,31.70
2018-12-10T23:11:08.291Z,36.27
2018-12-10T23:13:37.180Z,30.57
2018-12-10T23:16:05.553Z,24.63
2018-12-10T23:18:34.136Z,25.07
2018-12-10T23:21:03.130Z,29.97
2018-12-10T23:23:33.751Z,37.77
2018-12-10T23:26:02.276Z,32.80
2018-12-10T23:28:30.714Z,28.93
2018-12-10T23:30:58.784Z,31.67
2018-12-10T23:33:26.867Z,28.07
2018-12-10T23:35:55.848Z,31.60
2018-12-10T23:38:24.447Z,31.10
2018-12-10T23:40:52.825Z,30.93
2018-12-10T23:43:25.094Z,27.90
2018-12-10T23:45:53.142Z,34.07
2018-12-10T23:48:21.202Z,28.67
2018-12-10T23:50:49.280Z,28.23
2018-12-10T23:53:17.320Z,28.93
2018-12-10T23:55:45.815Z,36.27
2018-12-10T23:58:13.896Z,35.40
